Terminal Aerodrome Forecast
Issued by NWS

Home | Current Version | Previous Version | Text Only | Print | Product List | Glossary On
Versions: 1 2 3 4 5 6 7 8 9 10 11 12 13 14 15 16 17 18
000
FTUS41 KBGM 041942 AAA
TAFRME
TAF AMD
KRME 041942Z 0420/0518 30012G22KT P6SM BKN045
      TEMPO 0420/0422 3SM TSRA BR OVC025CB
     FM050000 VRB03KT P6SM BKN100
     FM050900 28005KT P6SM -SHRA OVC025
     FM051300 29012G22KT P6SM BKN040=

USA.gov is the U.S. government's official web portal to all federal, state and local government web resources and services.